Hillemann, Arkansas
Current Conditions -  °F | °C
As of 3:56 PM on Wednesday 28 Jan 2015 (Local Time) from KM19 Reporting Station
Clear Clear  
Wind Chill: 57°   Ceiling: Unl
Heat Index: 57°   Visibility: 10mi
Dew Point: 39°   Wind: 16mph
Humidity: 51%   Direction: 170°S
Pressure: 30.12"   Gusts: NA
Location:  35.2139°N, 91.1509°W
Report Text: KM19 282156Z AUTO 17014KT 10SM CLR 14/04 A3012 RMK AO2 T01380038 SLP198
Loading
Personal Weather Stations






























Interactive Weather Map New forecast layout! Learn more

10-Day Weather Forecast

Advertisements
Track Severe Weather on mobile